Koyo — JD2279 — position and weather

sailwx.info

Track history (hours):
 
Tides and Currents Weather Stations Pressure Air Temp Water Temp Dewpoint Dewpoint Depression Visibility Wind Speed Wind Dir Waves Ship Positions

Koyo

Last reported at 2016-May-04 07:32 UTC. Time now 2016-May-04 07:54 UTC.
Position N 34°39' E 135°14'.

Length 80 m; draft 3.7 m.

Type: Cargo ship. MMSI: 431301812.

Date/timePositionNaut miles runAvg speedWind from/ knotsBaromVisibWave heightAir tempDewpointWater temp
2016-May-04 07:32N 34°39' E 135°14'0 0.0
2016-May-04 06:32N 34°39' E 135°14'0 0.4
2016-May-04 05:33N 34°39' E 135°15'1 0.7
2016-May-04 04:32N 34°39' E 135°15'8 8.0
2016-May-04 03:33N 34°38' E 135°25'3 3.2
2016-May-04 02:34N 34°37' E 135°21'1111.2
2016-May-04 01:34N 34°34' E 135°08'1110.6
2016-May-04 00:32N 34°35' E 134°55'1 0.0
2016-May-02 05:19N 34°36' E 134°54'810.7
2016-May-02 04:33N 34°36' E 135°04'1212.1
2016-May-02 03:33N 34°37' E 135°19'5 4.9
2016-May-02 02:28N 34°38' E 135°25'0 0.0
2016-May-02 01:30N 34°38' E 135°25'7 7.1
2016-May-02 00:33N 34°38' E 135°17'3 2.7
2016-May-01 23:33N 34°40' E 135°14'1 1.0
2016-May-01 22:26N 34°38' E 135°15'0 0.0
2016-May-01 21:32N 34°38' E 135°15'0 0.0
2016-May-01 20:32N 34°38' E 135°15'0 0.0
2016-May-01 19:20N 34°38' E 135°15'0 0.0
2016-May-01 18:32N 34°38' E 135°15'0 0.1
2016-May-01 17:33N 34°38' E 135°15'1010.3
2016-May-01 16:33N 34°29' E 135°10'1412.8
2016-May-01 15:28N 34°18' E 134°60'  
2016-Apr-29 04:33N 34°14' E 134°58'1212.3
2016-Apr-29 03:33N 34°25' E 135°03'1312.8
2016-Apr-29 02:33N 34°36' E 135°12'4 3.6
2016-Apr-29 01:24N 34°40' E 135°14'0 0.0
2016-Apr-29 00:30N 34°40' E 135°14'0 0.0
2016-Apr-28 23:24N 34°40' E 135°14'1 1.7
2016-Apr-28 22:31N 34°38' E 135°16'0 0.2
2016-Apr-28 21:33N 34°38' E 135°16'1110.8
2016-Apr-28 20:33N 34°35' E 135°03'6 0.1
2016-Apr-27 04:33N 34°36' E 134°56'1212.1
2016-Apr-27 03:33N 34°37' E 135°10'5 4.3
2016-Apr-27 02:31N 34°40' E 135°14'0 0.0
2016-Apr-27 01:25N 34°40' E 135°14'0 0.2
2016-Apr-27 00:33N 34°39' E 135°15'1 0.9
2016-Apr-26 23:24N 34°38' E 135°15'8 9.3
2016-Apr-26 22:33N 34°34' E 135°06'1211.8
2016-Apr-26 21:33N 34°34' E 134°52'5 0.1
2016-Apr-25 05:14N 34°33' E 134°46'911.8
2016-Apr-25 04:28N 34°36' E 134°56'1011.0
2016-Apr-25 03:33N 34°36' E 135°08'1212.2
2016-Apr-25 02:33N 34°38' E 135°23'2 1.9
2016-Apr-25 01:28N 34°38' E 135°25'3 3.3
2016-Apr-25 00:33N 34°37' E 135°21'6 6.1
2016-Apr-24 23:30N 34°40' E 135°14'2 2.1
2016-Apr-24 22:28N 34°41' E 135°13'0 0.0
2016-Apr-24 21:31N 34°41' E 135°13'0 0.0
2016-Apr-24 20:33N 34°41' E 135°13'0 0.0
2016-Apr-24 19:33N 34°41' E 135°13'0 0.0
2016-Apr-24 18:33N 34°41' E 135°13'0 0.0
2016-Apr-24 17:33N 34°41' E 135°13'0 0.0
2016-Apr-24 16:33N 34°41' E 135°13'0 0.0
2016-Apr-24 15:33N 34°41' E 135°13'0 0.0
2016-Apr-24 14:33N 34°41' E 135°13'0 0.0
2016-Apr-24 13:33N 34°41' E 135°13'0 0.0
2016-Apr-24 12:33N 34°41' E 135°13'0 0.0
2016-Apr-24 11:33N 34°41' E 135°13'0 0.0
2016-Apr-24 10:33N 34°41' E 135°13'0 0.0
2016-Apr-24 09:33N 34°41' E 135°13'0 0.0
2016-Apr-24 08:33N 34°41' E 135°13'0 0.0
2016-Apr-24 07:33N 34°41' E 135°13'  
Track history (hours):
 
Tides and Currents Weather Stations Pressure Air Temp Water Temp Dewpoint Dewpoint Depression Visibility Wind Speed Wind Dir Waves Ship Positions

Koyo

Last reported at 2016-May-04 07:32 UTC. Time now 2016-May-04 07:54 UTC.
Position N 34°39' E 135°14'.

Length 80 m; draft 3.7 m.

Type: Cargo ship. MMSI: 431301812.

Date/timePositionNaut miles runAvg speedWind from/ knotsBaromVisibWave heightAir tempDewpointWater temp
2016-May-04 07:32N 34°39' E 135°14'0 0.0
2016-May-04 06:32N 34°39' E 135°14'0 0.4
2016-May-04 05:33N 34°39' E 135°15'1 0.7
2016-May-04 04:32N 34°39' E 135°15'8 8.0
2016-May-04 03:33N 34°38' E 135°25'3 3.2
2016-May-04 02:34N 34°37' E 135°21'1111.2
2016-May-04 01:34N 34°34' E 135°08'1110.6
2016-May-04 00:32N 34°35' E 134°55'1 0.0
2016-May-02 05:19N 34°36' E 134°54'810.7
2016-May-02 04:33N 34°36' E 135°04'1212.1
2016-May-02 03:33N 34°37' E 135°19'5 4.9
2016-May-02 02:28N 34°38' E 135°25'0 0.0
2016-May-02 01:30N 34°38' E 135°25'7 7.1
2016-May-02 00:33N 34°38' E 135°17'3 2.7
2016-May-01 23:33N 34°40' E 135°14'1 1.0
2016-May-01 22:26N 34°38' E 135°15'0 0.0
2016-May-01 21:32N 34°38' E 135°15'0 0.0
2016-May-01 20:32N 34°38' E 135°15'0 0.0
2016-May-01 19:20N 34°38' E 135°15'0 0.0
2016-May-01 18:32N 34°38' E 135°15'0 0.1
2016-May-01 17:33N 34°38' E 135°15'1010.3
2016-May-01 16:33N 34°29' E 135°10'1412.8
2016-May-01 15:28N 34°18' E 134°60'  
2016-Apr-29 04:33N 34°14' E 134°58'1212.3
2016-Apr-29 03:33N 34°25' E 135°03'1312.8
2016-Apr-29 02:33N 34°36' E 135°12'4 3.6
2016-Apr-29 01:24N 34°40' E 135°14'0 0.0
2016-Apr-29 00:30N 34°40' E 135°14'0 0.0
2016-Apr-28 23:24N 34°40' E 135°14'1 1.7
2016-Apr-28 22:31N 34°38' E 135°16'0 0.2
2016-Apr-28 21:33N 34°38' E 135°16'1110.8
2016-Apr-28 20:33N 34°35' E 135°03'6 0.1
2016-Apr-27 04:33N 34°36' E 134°56'1212.1
2016-Apr-27 03:33N 34°37' E 135°10'5 4.3
2016-Apr-27 02:31N 34°40' E 135°14'0 0.0
2016-Apr-27 01:25N 34°40' E 135°14'0 0.2
2016-Apr-27 00:33N 34°39' E 135°15'1 0.9
2016-Apr-26 23:24N 34°38' E 135°15'8 9.3
2016-Apr-26 22:33N 34°34' E 135°06'1211.8
2016-Apr-26 21:33N 34°34' E 134°52'5 0.1
2016-Apr-25 05:14N 34°33' E 134°46'911.8
2016-Apr-25 04:28N 34°36' E 134°56'1011.0
2016-Apr-25 03:33N 34°36' E 135°08'1212.2
2016-Apr-25 02:33N 34°38' E 135°23'2 1.9
2016-Apr-25 01:28N 34°38' E 135°25'3 3.3
2016-Apr-25 00:33N 34°37' E 135°21'6 6.1
2016-Apr-24 23:30N 34°40' E 135°14'2 2.1
2016-Apr-24 22:28N 34°41' E 135°13'0 0.0
2016-Apr-24 21:31N 34°41' E 135°13'0 0.0
2016-Apr-24 20:33N 34°41' E 135°13'0 0.0
2016-Apr-24 19:33N 34°41' E 135°13'0 0.0
2016-Apr-24 18:33N 34°41' E 135°13'0 0.0
2016-Apr-24 17:33N 34°41' E 135°13'0 0.0
2016-Apr-24 16:33N 34°41' E 135°13'0 0.0
2016-Apr-24 15:33N 34°41' E 135°13'0 0.0
2016-Apr-24 14:33N 34°41' E 135°13'0 0.0
2016-Apr-24 13:33N 34°41' E 135°13'0 0.0
2016-Apr-24 12:33N 34°41' E 135°13'0 0.0
2016-Apr-24 11:33N 34°41' E 135°13'0 0.0
2016-Apr-24 10:33N 34°41' E 135°13'0 0.0
2016-Apr-24 09:33N 34°41' E 135°13'0 0.0
2016-Apr-24 08:33N 34°41' E 135°13'0 0.0
2016-Apr-24 07:33N 34°41' E 135°13'  

Dump ship's entire track history